sensor_id;sensor_type;location;lat;lon;timestamp;pressure;altitude;pressure_sealevel;temperature;humidity
25238;BME280;13185;50.872;5.306;2023-04-29T00:00:23;101131.59;;;11.70;100.00
25238;BME280;13185;50.872;5.306;2023-04-29T00:02:49;101127.19;;;11.69;100.00
25238;BME280;13185;50.872;5.306;2023-04-29T00:05:15;101146.94;;;11.68;100.00
25238;BME280;13185;50.872;5.306;2023-04-29T00:07:40;101146.09;;;11.68;100.00
25238;BME280;13185;50.872;5.306;2023-04-29T00:10:07;101150.78;;;11.64;100.00
25238;BME280;13185;50.872;5.306;2023-04-29T00:12:33;101155.19;;;11.65;100.00
25238;BME280;13185;50.872;5.306;2023-04-29T00:14:58;101154.44;;;11.63;100.00
25238;BME280;13185;50.872;5.306;2023-04-29T00:17:25;101143.03;;;11.60;100.00
25238;BME280;13185;50.872;5.306;2023-04-29T00:19:50;101152.16;;;11.57;100.00
25238;BME280;13185;50.872;5.306;2023-04-29T00:22:16;101154.16;;;11.53;100.00
25238;BME280;13185;50.872;5.306;2023-04-29T00:24:42;101151.56;;;11.52;100.00
25238;BME280;13185;50.872;5.306;2023-04-29T00:27:07;101156.28;;;11.48;100.00
25238;BME280;13185;50.872;5.306;2023-04-29T00:29:33;101160.00;;;11.46;100.00
25238;BME280;13185;50.872;5.306;2023-04-29T00:31:58;101159.16;;;11.45;100.00
25238;BME280;13185;50.872;5.306;2023-04-29T00:34:24;101158.38;;;11.43;100.00
25238;BME280;13185;50.872;5.306;2023-04-29T00:36:49;101160.97;;;11.45;100.00
25238;BME280;13185;50.872;5.306;2023-04-29T00:39:16;101164.81;;;11.41;100.00
25238;BME280;13185;50.872;5.306;2023-04-29T00:41:42;101163.47;;;11.34;100.00
25238;BME280;13185;50.872;5.306;2023-04-29T00:44:08;101164.66;;;11.30;100.00
25238;BME280;13185;50.872;5.306;2023-04-29T00:46:34;101172.03;;;11.26;100.00
25238;BME280;13185;50.872;5.306;2023-04-29T00:49:00;101165.00;;;11.23;100.00
25238;BME280;13185;50.872;5.306;2023-04-29T00:51:25;101174.22;;;11.19;100.00
25238;BME280;13185;50.872;5.306;2023-04-29T00:53:52;101175.19;;;11.18;100.00
25238;BME280;13185;50.872;5.306;2023-04-29T00:56:18;101177.13;;;11.16;100.00
25238;BME280;13185;50.872;5.306;2023-04-29T00:58:45;101177.19;;;11.15;100.00
25238;BME280;13185;50.872;5.306;2023-04-29T01:01:20;101182.66;;;11.13;100.00
25238;BME280;13185;50.872;5.306;2023-04-29T01:03:46;101181.88;;;11.11;100.00
25238;BME280;13185;50.872;5.306;2023-04-29T01:06:25;101181.22;;;11.08;100.00
25238;BME280;13185;50.872;5.306;2023-04-29T01:11:22;101187.16;;;11.13;100.00
25238;BME280;13185;50.872;5.306;2023-04-29T01:13:58;101188.97;;;11.12;100.00
25238;BME280;13185;50.872;5.306;2023-04-29T01:16:33;101190.03;;;11.10;100.00
25238;BME280;13185;50.872;5.306;2023-04-29T01:21:55;101196.94;;;10.99;100.00
25238;BME280;13185;50.872;5.306;2023-04-29T01:24:21;101197.03;;;10.98;100.00
25238;BME280;13185;50.872;5.306;2023-04-29T01:26:55;101201.72;;;10.94;100.00
25238;BME280;13185;50.872;5.306;2023-04-29T01:40:33;101209.31;;;10.72;100.00
25238;BME280;13185;50.872;5.306;2023-04-29T01:43:09;101203.97;;;10.72;100.00
25238;BME280;13185;50.872;5.306;2023-04-29T01:45:39;101207.44;;;10.74;100.00
25238;BME280;13185;50.872;5.306;2023-04-29T01:48:08;101212.81;;;10.74;100.00
25238;BME280;13185;50.872;5.306;2023-04-29T01:50:34;101206.63;;;10.72;100.00
25238;BME280;13185;50.872;5.306;2023-04-29T01:53:08;101218.31;;;10.71;100.00
25238;BME280;13185;50.872;5.306;2023-04-29T01:55:34;101212.09;;;10.70;100.00
25238;BME280;13185;50.872;5.306;2023-04-29T01:58:15;101217.56;;;10.69;100.00
25238;BME280;13185;50.872;5.306;2023-04-29T02:00:53;101220.91;;;10.73;100.00
25238;BME280;13185;50.872;5.306;2023-04-29T02:03:20;101211.03;;;10.73;100.00
25238;BME280;13185;50.872;5.306;2023-04-29T02:05:49;101214.78;;;10.70;100.00
25238;BME280;13185;50.872;5.306;2023-04-29T02:08:18;101214.97;;;10.67;100.00
25238;BME280;13185;50.872;5.306;2023-04-29T02:10:52;101217.94;;;10.63;100.00
25238;BME280;13185;50.872;5.306;2023-04-29T02:13:28;101215.31;;;10.61;100.00
25238;BME280;13185;50.872;5.306;2023-04-29T02:15:53;101224.44;;;10.59;100.00
25238;BME280;13185;50.872;5.306;2023-04-29T02:18:20;101228.16;;;10.56;100.00
25238;BME280;13185;50.872;5.306;2023-04-29T02:20:47;101223.75;;;10.55;100.00
25238;BME280;13185;50.872;5.306;2023-04-29T02:23:14;101228.50;;;10.50;100.00
25238;BME280;13185;50.872;5.306;2023-04-29T02:25:40;101230.41;;;10.48;100.00
25238;BME280;13185;50.872;5.306;2023-04-29T02:28:05;101232.34;;;10.46;100.00
25238;BME280;13185;50.872;5.306;2023-04-29T02:30:31;101229.66;;;10.46;100.00
25238;BME280;13185;50.872;5.306;2023-04-29T02:32:57;101233.47;;;10.42;100.00
25238;BME280;13185;50.872;5.306;2023-04-29T02:35:23;101233.81;;;10.36;100.00
25238;BME280;13185;50.872;5.306;2023-04-29T02:37:48;101235.88;;;10.31;100.00
25238;BME280;13185;50.872;5.306;2023-04-29T02:40:14;101240.31;;;10.32;100.00
25238;BME280;13185;50.872;5.306;2023-04-29T02:42:39;101241.44;;;10.28;100.00
25238;BME280;13185;50.872;5.306;2023-04-29T02:45:06;101241.72;;;10.23;100.00
25238;BME280;13185;50.872;5.306;2023-04-29T02:47:32;101245.25;;;10.24;100.00
25238;BME280;13185;50.872;5.306;2023-04-29T02:49:57;101257.88;;;10.22;100.00
25238;BME280;13185;50.872;5.306;2023-04-29T02:52:23;101253.50;;;10.19;100.00
25238;BME280;13185;50.872;5.306;2023-04-29T02:54:49;101258.09;;;10.17;100.00
25238;BME280;13185;50.872;5.306;2023-04-29T02:57:15;101258.19;;;10.16;100.00
25238;BME280;13185;50.872;5.306;2023-04-29T02:59:40;101264.41;;;10.16;100.00
25238;BME280;13185;50.872;5.306;2023-04-29T03:02:06;101269.69;;;10.18;100.00
25238;BME280;13185;50.872;5.306;2023-04-29T03:04:31;101267.38;;;10.11;100.00
25238;BME280;13185;50.872;5.306;2023-04-29T03:06:57;101273.59;;;10.12;100.00
25238;BME280;13185;50.872;5.306;2023-04-29T03:09:25;101272.88;;;10.08;100.00
25238;BME280;13185;50.872;5.306;2023-04-29T03:11:51;101274.59;;;10.09;100.00
25238;BME280;13185;50.872;5.306;2023-04-29T03:14:17;101278.09;;;10.11;100.00
25238;BME280;13185;50.872;5.306;2023-04-29T03:16:43;101285.31;;;10.09;100.00
25238;BME280;13185;50.872;5.306;2023-04-29T03:19:09;101277.22;;;10.11;100.00
25238;BME280;13185;50.872;5.306;2023-04-29T03:21:34;101288.81;;;10.11;100.00
25238;BME280;13185;50.872;5.306;2023-04-29T03:24:00;101278.31;;;10.07;100.00
25238;BME280;13185;50.872;5.306;2023-04-29T03:26:31;101290.28;;;10.01;100.00
25238;BME280;13185;50.872;5.306;2023-04-29T03:28:57;101285.91;;;9.99;100.00
25238;BME280;13185;50.872;5.306;2023-04-29T03:31:24;101282.38;;;9.98;100.00
25238;BME280;13185;50.872;5.306;2023-04-29T03:33:51;101286.97;;;9.96;100.00
25238;BME280;13185;50.872;5.306;2023-04-29T03:36:18;101289.47;;;9.99;100.00
25238;BME280;13185;50.872;5.306;2023-04-29T03:39:00;101282.38;;;9.98;100.00
25238;BME280;13185;50.872;5.306;2023-04-29T03:41:26;101287.91;;;9.95;100.00
25238;BME280;13185;50.872;5.306;2023-04-29T03:43:51;101285.41;;;9.92;100.00
25238;BME280;13185;50.872;5.306;2023-04-29T03:46:19;101293.38;;;9.94;100.00
25238;BME280;13185;50.872;5.306;2023-04-29T03:48:44;101289.72;;;9.95;100.00
25238;BME280;13185;50.872;5.306;2023-04-29T03:51:11;101297.59;;;9.98;100.00
25238;BME280;13185;50.872;5.306;2023-04-29T03:53:38;101295.88;;;9.97;100.00
25238;BME280;13185;50.872;5.306;2023-04-29T03:56:04;101299.50;;;9.96;100.00
25238;BME280;13185;50.872;5.306;2023-04-29T03:58:30;101302.09;;;9.97;100.00
25238;BME280;13185;50.872;5.306;2023-04-29T04:00:55;101302.00;;;9.99;100.00
25238;BME280;13185;50.872;5.306;2023-04-29T04:03:26;101302.09;;;9.97;100.00
25238;BME280;13185;50.872;5.306;2023-04-29T04:05:54;101312.91;;;9.96;100.00
25238;BME280;13185;50.872;5.306;2023-04-29T04:08:20;101299.50;;;9.96;100.00
25238;BME280;13185;50.872;5.306;2023-04-29T04:10:50;101320.94;;;9.96;100.00
25238;BME280;13185;50.872;5.306;2023-04-29T04:13:31;101319.28;;;9.93;100.00
25238;BME280;13185;50.872;5.306;2023-04-29T04:15:57;101320.34;;;9.91;100.00
25238;BME280;13185;50.872;5.306;2023-04-29T04:18:23;101320.16;;;9.94;100.00
25238;BME280;13185;50.872;5.306;2023-04-29T04:20:48;101323.88;;;9.91;100.00
25238;BME280;13185;50.872;5.306;2023-04-29T04:23:14;101323.16;;;9.88;100.00
25238;BME280;13185;50.872;5.306;2023-04-29T04:25:47;101321.53;;;9.85;100.00
25238;BME280;13185;50.872;5.306;2023-04-29T04:28:33;101334.81;;;9.87;100.00
25238;BME280;13185;50.872;5.306;2023-04-29T04:31:04;101334.75;;;9.88;100.00
25238;BME280;13185;50.872;5.306;2023-04-29T04:33:30;101338.38;;;9.87;100.00
25238;BME280;13185;50.872;5.306;2023-04-29T04:35:57;101342.78;;;9.88;100.00
25238;BME280;13185;50.872;5.306;2023-04-29T04:38:23;101339.16;;;9.89;100.00
25238;BME280;13185;50.872;5.306;2023-04-29T04:40:50;101351.69;;;9.89;100.00
25238;BME280;13185;50.872;5.306;2023-04-29T04:43:41;101350.03;;;9.86;100.00
25238;BME280;13185;50.872;5.306;2023-04-29T04:46:14;101360.56;;;9.89;100.00
25238;BME280;13185;50.872;5.306;2023-04-29T04:48:54;101366.97;;;9.87;100.00
25238;BME280;13185;50.872;5.306;2023-04-29T04:51:20;101368.97;;;9.83;100.00
25238;BME280;13185;50.872;5.306;2023-04-29T04:53:46;101380.47;;;9.85;100.00
25238;BME280;13185;50.872;5.306;2023-04-29T04:56:18;101381.31;;;9.86;100.00
25238;BME280;13185;50.872;5.306;2023-04-29T04:58:44;101391.16;;;9.85;100.00
25238;BME280;13185;50.872;5.306;2023-04-29T05:01:09;101384.09;;;9.84;100.00
25238;BME280;13185;50.872;5.306;2023-04-29T05:03:35;101390.31;;;9.84;100.00
25238;BME280;13185;50.872;5.306;2023-04-29T05:06:01;101383.22;;;9.83;100.00
25238;BME280;13185;50.872;5.306;2023-04-29T05:08:28;101390.31;;;9.84;100.00
25238;BME280;13185;50.872;5.306;2023-04-29T05:10:56;101385.91;;;9.83;100.00
25238;BME280;13185;50.872;5.306;2023-04-29T05:13:22;101386.84;;;9.82;100.00
25238;BME280;13185;50.872;5.306;2023-04-29T05:15:49;101394.88;;;9.82;100.00
25238;BME280;13185;50.872;5.306;2023-04-29T05:18:19;101391.34;;;9.82;100.00
25238;BME280;13185;50.872;5.306;2023-04-29T05:20:47;101395.75;;;9.83;100.00
25238;BME280;13185;50.872;5.306;2023-04-29T05:23:12;101396.63;;;9.83;100.00
25238;BME280;13185;50.872;5.306;2023-04-29T05:25:39;101397.47;;;9.84;100.00
25238;BME280;13185;50.872;5.306;2023-04-29T05:28:05;101398.44;;;9.83;100.00
25238;BME280;13185;50.872;5.306;2023-04-29T05:30:33;101402.19;;;9.79;100.00
25238;BME280;13185;50.872;5.306;2023-04-29T05:32:59;101404.09;;;9.77;100.00
25238;BME280;13185;50.872;5.306;2023-04-29T05:35:24;101404.97;;;9.77;100.00
25238;BME280;13185;50.872;5.306;2023-04-29T05:37:50;101412.06;;;9.78;100.00
25238;BME280;13185;50.872;5.306;2023-04-29T05:40:24;101415.59;;;9.79;100.00
25238;BME280;13185;50.872;5.306;2023-04-29T05:42:55;101416.41;;;9.81;100.00
25238;BME280;13185;50.872;5.306;2023-04-29T05:45:20;101425.22;;;9.83;100.00
25238;BME280;13185;50.872;5.306;2023-04-29T05:47:48;101424.19;;;9.86;100.00
25238;BME280;13185;50.872;5.306;2023-04-29T05:50:14;101432.13;;;9.87;100.00
25238;BME280;13185;50.872;5.306;2023-04-29T05:52:39;101431.19;;;9.88;100.00
25238;BME280;13185;50.872;5.306;2023-04-29T05:55:05;101443.63;;;9.89;100.00
25238;BME280;13185;50.872;5.306;2023-04-29T05:57:31;101437.50;;;9.87;100.00
25238;BME280;13185;50.872;5.306;2023-04-29T05:59:56;101442.94;;;9.86;100.00
25238;BME280;13185;50.872;5.306;2023-04-29T06:02:24;101443.03;;;9.84;100.00
25238;BME280;13185;50.872;5.306;2023-04-29T06:04:50;101447.44;;;9.85;100.00
25238;BME280;13185;50.872;5.306;2023-04-29T06:07:45;101449.06;;;9.88;100.00
25238;BME280;13185;50.872;5.306;2023-04-29T06:10:46;101451.66;;;9.89;100.00
25238;BME280;13185;50.872;5.306;2023-04-29T06:13:12;101451.63;;;9.91;100.00
25238;BME280;13185;50.872;5.306;2023-04-29T06:15:38;101454.22;;;9.92;100.00
25238;BME280;13185;50.872;5.306;2023-04-29T06:18:03;101457.84;;;9.91;100.00
25238;BME280;13185;50.872;5.306;2023-04-29T06:20:29;101462.38;;;9.89;100.00
25238;BME280;13185;50.872;5.306;2023-04-29T06:22:54;101460.91;;;9.83;100.00
25238;BME280;13185;50.872;5.306;2023-04-29T06:25:20;101470.94;;;9.80;100.00
25238;BME280;13185;50.872;5.306;2023-04-29T06:27:48;101478.31;;;9.75;100.00
25238;BME280;13185;50.872;5.306;2023-04-29T06:30:16;101478.31;;;9.75;100.00
25238;BME280;13185;50.872;5.306;2023-04-29T06:32:43;101468.84;;;9.68;100.00
25238;BME280;13185;50.872;5.306;2023-04-29T06:35:08;101472.41;;;9.68;100.00
25238;BME280;13185;50.872;5.306;2023-04-29T06:37:53;101482.13;;;9.71;100.00
25238;BME280;13185;50.872;5.306;2023-04-29T06:40:39;101486.44;;;9.73;100.00
25238;BME280;13185;50.872;5.306;2023-04-29T06:43:30;101485.75;;;9.70;100.00
25238;BME280;13185;50.872;5.306;2023-04-29T06:46:14;101500.88;;;9.71;100.00
25238;BME280;13185;50.872;5.306;2023-04-29T06:48:51;101507.16;;;9.70;100.00
25238;BME280;13185;50.872;5.306;2023-04-29T06:51:17;101505.41;;;9.69;100.00
25238;BME280;13185;50.872;5.306;2023-04-29T06:53:42;101504.53;;;9.68;100.00
25238;BME280;13185;50.872;5.306;2023-04-29T06:56:08;101514.34;;;9.69;100.00
25238;BME280;13185;50.872;5.306;2023-04-29T06:58:33;101521.34;;;9.72;100.00
25238;BME280;13185;50.872;5.306;2023-04-29T07:00:59;101514.88;;;9.76;100.00
25238;BME280;13185;50.872;5.306;2023-04-29T07:03:25;101519.06;;;9.81;100.00
25238;BME280;13185;50.872;5.306;2023-04-29T07:05:50;101522.34;;;9.87;100.00
25238;BME280;13185;50.872;5.306;2023-04-29T07:08:16;101528.06;;;9.80;100.00
25238;BME280;13185;50.872;5.306;2023-04-29T07:10:41;101519.38;;;9.75;100.00
25238;BME280;13185;50.872;5.306;2023-04-29T07:13:07;101523.69;;;9.78;100.00
25238;BME280;13185;50.872;5.306;2023-04-29T07:15:34;101533.47;;;9.79;100.00
25238;BME280;13185;50.872;5.306;2023-04-29T07:18:00;101536.78;;;9.84;100.00
25238;BME280;13185;50.872;5.306;2023-04-29T07:20:25;101535.84;;;9.85;100.00
25238;BME280;13185;50.872;5.306;2023-04-29T07:22:54;101535.91;;;9.83;100.00
25238;BME280;13185;50.872;5.306;2023-04-29T07:25:19;101540.25;;;9.86;100.00
25238;BME280;13185;50.872;5.306;2023-04-29T07:27:45;101544.53;;;9.90;100.00
25238;BME280;13185;50.872;5.306;2023-04-29T07:30:12;101539.94;;;9.92;100.00
25238;BME280;13185;50.872;5.306;2023-04-29T07:32:37;101559.41;;;9.96;100.00
25238;BME280;13185;50.872;5.306;2023-04-29T07:35:04;101549.47;;;9.98;100.00
25238;BME280;13185;50.872;5.306;2023-04-29T07:37:29;101543.88;;;10.02;100.00
25238;BME280;13185;50.872;5.306;2023-04-29T07:39:55;101551.59;;;10.08;100.00
25238;BME280;13185;50.872;5.306;2023-04-29T07:42:21;101548.78;;;10.11;100.00
25238;BME280;13185;50.872;5.306;2023-04-29T07:44:47;101548.69;;;10.13;100.00
25238;BME280;13185;50.872;5.306;2023-04-29T07:47:12;101543.06;;;10.18;100.00
25238;BME280;13185;50.872;5.306;2023-04-29T07:49:39;101552.00;;;10.18;100.00
25238;BME280;13185;50.872;5.306;2023-04-29T07:52:06;101543.00;;;10.19;100.00
25238;BME280;13185;50.872;5.306;2023-04-29T07:54:32;101557.06;;;10.24;100.00
25238;BME280;13185;50.872;5.306;2023-04-29T07:56:58;101563.13;;;10.28;100.00
25238;BME280;13185;50.872;5.306;2023-04-29T07:59:24;101563.13;;;10.28;100.00
25238;BME280;13185;50.872;5.306;2023-04-29T08:01:50;101562.91;;;10.32;100.00
25238;BME280;13185;50.872;5.306;2023-04-29T08:04:16;101567.16;;;10.36;100.00
25238;BME280;13185;50.872;5.306;2023-04-29T08:06:47;101563.44;;;10.39;100.00
25238;BME280;13185;50.872;5.306;2023-04-29T08:09:14;101569.56;;;10.41;100.00
25238;BME280;13185;50.872;5.306;2023-04-29T08:11:42;101569.34;;;10.46;100.00
25238;BME280;13185;50.872;5.306;2023-04-29T08:14:11;101568.41;;;10.47;100.00
25238;BME280;13185;50.872;5.306;2023-04-29T08:16:37;101574.63;;;10.47;100.00
25238;BME280;13185;50.872;5.306;2023-04-29T08:19:02;101579.91;;;10.49;100.00
25238;BME280;13185;50.872;5.306;2023-04-29T08:21:29;101579.72;;;10.52;100.00
25238;BME280;13185;50.872;5.306;2023-04-29T08:23:56;101581.53;;;10.51;100.00
25238;BME280;13185;50.872;5.306;2023-04-29T08:26:22;101587.88;;;10.50;100.00
25238;BME280;13185;50.872;5.306;2023-04-29T08:28:48;101589.06;;;10.45;100.00
25238;BME280;13185;50.872;5.306;2023-04-29T08:31:17;101582.97;;;10.41;100.00
25238;BME280;13185;50.872;5.306;2023-04-29T08:33:43;101582.94;;;10.43;100.00
25238;BME280;13185;50.872;5.306;2023-04-29T08:36:09;101590.97;;;10.43;100.00
25238;BME280;13185;50.872;5.306;2023-04-29T08:38:34;101588.34;;;10.41;100.00
25238;BME280;13185;50.872;5.306;2023-04-29T08:41:00;101586.53;;;10.41;100.00
25238;BME280;13185;50.872;5.306;2023-04-29T08:43:26;101586.63;;;10.40;100.00
25238;BME280;13185;50.872;5.306;2023-04-29T08:45:51;101589.06;;;10.45;100.00
25238;BME280;13185;50.872;5.306;2023-04-29T08:48:17;101587.78;;;10.52;100.00
25238;BME280;13185;50.872;5.306;2023-04-29T08:50:43;101596.28;;;10.60;100.00
25238;BME280;13185;50.872;5.306;2023-04-29T08:53:11;101598.56;;;10.67;100.00
25238;BME280;13185;50.872;5.306;2023-04-29T08:55:45;101606.53;;;10.69;100.00
25238;BME280;13185;50.872;5.306;2023-04-29T08:58:12;101615.22;;;10.74;100.00
25238;BME280;13185;50.872;5.306;2023-04-29T09:00:39;101605.00;;;10.81;100.00
25238;BME280;13185;50.872;5.306;2023-04-29T09:05:48;101609.88;;;10.90;99.19
25238;BME280;13185;50.872;5.306;2023-04-29T09:08:15;101615.88;;;10.95;98.68
25238;BME280;13185;50.872;5.306;2023-04-29T09:10:41;101618.31;;;10.99;98.31
25238;BME280;13185;50.872;5.306;2023-04-29T09:13:07;101620.72;;;11.04;97.90
25238;BME280;13185;50.872;5.306;2023-04-29T09:15:37;101622.31;;;11.08;97.45
25238;BME280;13185;50.872;5.306;2023-04-29T09:18:04;101619.63;;;11.08;96.76
25238;BME280;13185;50.872;5.306;2023-04-29T09:20:30;101612.16;;;11.13;96.58
25238;BME280;13185;50.872;5.306;2023-04-29T09:23:01;101626.13;;;11.20;96.56
25238;BME280;13185;50.872;5.306;2023-04-29T09:25:27;101626.50;;;11.30;96.77
25238;BME280;13185;50.872;5.306;2023-04-29T09:27:54;101631.19;;;11.26;95.32
25238;BME280;13185;50.872;5.306;2023-04-29T09:30:21;101635.59;;;11.27;95.11
25238;BME280;13185;50.872;5.306;2023-04-29T09:33:07;101637.31;;;11.28;95.06
25238;BME280;13185;50.872;5.306;2023-04-29T09:35:33;101639.91;;;11.30;95.08
25238;BME280;13185;50.872;5.306;2023-04-29T09:40:35;101634.63;;;11.28;93.76
25238;BME280;13185;50.872;5.306;2023-04-29T09:43:01;101641.72;;;11.45;93.99
25238;BME280;13185;50.872;5.306;2023-04-29T09:45:36;101645.75;;;11.69;94.39
25238;BME280;13185;50.872;5.306;2023-04-29T09:48:06;101644.53;;;11.91;93.38
25238;BME280;13185;50.872;5.306;2023-04-29T09:50:39;101654.22;;;12.09;92.17
25238;BME280;13185;50.872;5.306;2023-04-29T09:53:08;101640.94;;;12.22;90.87
25238;BME280;13185;50.872;5.306;2023-04-29T09:55:35;101649.91;;;12.36;89.21
25238;BME280;13185;50.872;5.306;2023-04-29T09:58:00;101653.41;;;12.53;88.69
25238;BME280;13185;50.872;5.306;2023-04-29T10:00:30;101659.56;;;12.55;87.46
25238;BME280;13185;50.872;5.306;2023-04-29T10:03:00;101658.41;;;12.59;87.05
25238;BME280;13185;50.872;5.306;2023-04-29T10:05:28;101662.38;;;12.67;87.02
25238;BME280;13185;50.872;5.306;2023-04-29T10:07:57;101647.84;;;12.70;86.09
25238;BME280;13185;50.872;5.306;2023-04-29T10:10:23;101657.09;;;12.80;85.50
25238;BME280;13185;50.872;5.306;2023-04-29T10:12:54;101655.88;;;12.86;85.13
25238;BME280;13185;50.872;5.306;2023-04-29T10:15:35;101655.75;;;12.87;84.33
25238;BME280;13185;50.872;5.306;2023-04-29T10:18:19;101661.50;;;12.81;83.09
25238;BME280;13185;50.872;5.306;2023-04-29T10:20:46;101661.81;;;12.77;83.22
25238;BME280;13185;50.872;5.306;2023-04-29T10:23:14;101661.81;;;12.77;83.57
25238;BME280;13185;50.872;5.306;2023-04-29T10:25:43;101658.16;;;12.78;83.51
25238;BME280;13185;50.872;5.306;2023-04-29T10:28:13;101661.13;;;12.73;83.49
25238;BME280;13185;50.872;5.306;2023-04-29T10:30:44;101657.94;;;12.66;84.19
25238;BME280;13185;50.872;5.306;2023-04-29T10:33:15;101659.69;;;12.67;84.68
25238;BME280;13185;50.872;5.306;2023-04-29T10:35:42;101661.91;;;12.75;85.05
25238;BME280;13185;50.872;5.306;2023-04-29T10:38:34;101662.50;;;12.94;84.83
25238;BME280;13185;50.872;5.306;2023-04-29T10:41:03;101655.78;;;13.16;84.26
25238;BME280;13185;50.872;5.306;2023-04-29T10:43:32;101653.88;;;13.46;84.47
25238;BME280;13185;50.872;5.306;2023-04-29T10:48:56;101665.31;;;14.18;84.64
25238;BME280;13185;50.872;5.306;2023-04-29T10:51:39;101658.47;;;14.39;81.51
25238;BME280;13185;50.872;5.306;2023-04-29T10:54:12;101653.34;;;14.49;80.38
25238;BME280;13185;50.872;5.306;2023-04-29T10:56:49;101662.38;;;14.48;79.33
25238;BME280;13185;50.872;5.306;2023-04-29T11:01:53;101661.44;;;14.22;78.15
25238;BME280;13185;50.872;5.306;2023-04-29T11:04:20;101671.31;;;14.09;78.61
25238;BME280;13185;50.872;5.306;2023-04-29T11:06:54;101664.28;;;14.06;78.42
25238;BME280;13185;50.872;5.306;2023-04-29T11:09:25;101660.22;;;14.13;78.87
25238;BME280;13185;50.872;5.306;2023-04-29T11:12:02;101660.25;;;14.26;79.44
25238;BME280;13185;50.872;5.306;2023-04-29T11:17:00;101663.63;;;14.30;77.64
25238;BME280;13185;50.872;5.306;2023-04-29T11:19:31;101673.22;;;14.34;77.85
25238;BME280;13185;50.872;5.306;2023-04-29T11:22:13;101671.16;;;14.37;77.14
25238;BME280;13185;50.872;5.306;2023-04-29T11:24:53;101665.28;;;14.45;76.79
25238;BME280;13185;50.872;5.306;2023-04-29T11:27:20;101665.22;;;14.59;76.84
25238;BME280;13185;50.872;5.306;2023-04-29T11:29:49;101666.75;;;14.63;76.29
25238;BME280;13185;50.872;5.306;2023-04-29T11:32:19;101662.97;;;14.66;75.92
25238;BME280;13185;50.872;5.306;2023-04-29T11:34:45;101664.38;;;14.71;75.51
25238;BME280;13185;50.872;5.306;2023-04-29T11:37:11;101670.19;;;14.65;74.47
25238;BME280;13185;50.872;5.306;2023-04-29T11:39:36;101674.72;;;14.65;74.57
25238;BME280;13185;50.872;5.306;2023-04-29T11:42:05;101677.13;;;14.69;74.87
25238;BME280;13185;50.872;5.306;2023-04-29T11:44:35;101663.28;;;14.74;75.28
25238;BME280;13185;50.872;5.306;2023-04-29T11:47:02;101664.16;;;14.87;75.29
25238;BME280;13185;50.872;5.306;2023-04-29T11:49:33;101670.22;;;15.04;74.36
25238;BME280;13185;50.872;5.306;2023-04-29T11:51:59;101667.28;;;15.19;74.11
25238;BME280;13185;50.872;5.306;2023-04-29T11:54:26;101670.72;;;15.47;75.26
25238;BME280;13185;50.872;5.306;2023-04-29T11:56:55;101669.63;;;15.62;73.71
25238;BME280;13185;50.872;5.306;2023-04-29T11:59:22;101666.63;;;15.91;73.72
25238;BME280;13185;50.872;5.306;2023-04-29T12:01:49;101660.28;;;16.03;73.12
25238;BME280;13185;50.872;5.306;2023-04-29T12:04:15;101658.50;;;16.14;73.34
25238;BME280;13185;50.872;5.306;2023-04-29T12:06:41;101651.22;;;16.15;72.03
25238;BME280;13185;50.872;5.306;2023-04-29T12:09:07;101657.88;;;16.11;69.95
25238;BME280;13185;50.872;5.306;2023-04-29T12:11:33;101654.47;;;16.20;71.09
25238;BME280;13185;50.872;5.306;2023-04-29T12:14:00;101664.56;;;16.18;70.63
25238;BME280;13185;50.872;5.306;2023-04-29T12:16:28;101655.91;;;16.13;70.96
25238;BME280;13185;50.872;5.306;2023-04-29T12:18:54;101660.06;;;16.06;70.28
25238;BME280;13185;50.872;5.306;2023-04-29T12:21:21;101662.53;;;16.09;70.06
25238;BME280;13185;50.872;5.306;2023-04-29T12:23:47;101652.63;;;16.21;71.07
25238;BME280;13185;50.872;5.306;2023-04-29T12:26:13;101657.31;;;16.19;70.32
25238;BME280;13185;50.872;5.306;2023-04-29T12:28:41;101652.16;;;16.27;71.33
25238;BME280;13185;50.872;5.306;2023-04-29T12:31:08;101664.72;;;16.28;71.23
25238;BME280;13185;50.872;5.306;2023-04-29T12:33:35;101661.94;;;16.40;71.37
25238;BME280;13185;50.872;5.306;2023-04-29T12:36:01;101665.50;;;16.41;69.93
25238;BME280;13185;50.872;5.306;2023-04-29T12:38:29;101668.81;;;16.44;68.99
25238;BME280;13185;50.872;5.306;2023-04-29T12:40:57;101666.00;;;16.46;69.78
25238;BME280;13185;50.872;5.306;2023-04-29T12:43:27;101660.13;;;16.52;69.26
25238;BME280;13185;50.872;5.306;2023-04-29T12:45:59;101665.09;;;16.34;67.27
25238;BME280;13185;50.872;5.306;2023-04-29T12:48:32;101664.31;;;16.21;68.20
25238;BME280;13185;50.872;5.306;2023-04-29T12:50:57;101671.94;;;16.16;68.30
25238;BME280;13185;50.872;5.306;2023-04-29T12:53:28;101671.53;;;16.09;67.60
25238;BME280;13185;50.872;5.306;2023-04-29T12:55:54;101680.94;;;16.04;67.63
25238;BME280;13185;50.872;5.306;2023-04-29T12:58:20;101678.28;;;15.91;67.53
25238;BME280;13185;50.872;5.306;2023-04-29T13:00:46;101680.84;;;15.69;67.16
25238;BME280;13185;50.872;5.306;2023-04-29T13:03:11;101674.59;;;15.55;68.06
25238;BME280;13185;50.872;5.306;2023-04-29T13:05:37;101685.09;;;15.47;68.34
25238;BME280;13185;50.872;5.306;2023-04-29T13:08:03;101665.22;;;15.36;68.73
25238;BME280;13185;50.872;5.306;2023-04-29T13:10:33;101667.19;;;15.34;69.01
25238;BME280;13185;50.872;5.306;2023-04-29T13:12:59;101672.16;;;15.27;68.85
25238;BME280;13185;50.872;5.306;2023-04-29T13:15:25;101671.50;;;15.23;68.90
25238;BME280;13185;50.872;5.306;2023-04-29T13:17:51;101661.34;;;15.27;69.12
25238;BME280;13185;50.872;5.306;2023-04-29T13:20:17;101664.38;;;15.35;69.09